createdAt,value
2022-12-18T00:00:06.833Z,90.89
2022-12-18T00:05:10.017Z,91.23
2022-12-18T00:10:15.485Z,91.35
2022-12-18T00:15:18.421Z,90.67
2022-12-18T00:20:26.537Z,90.37
2022-12-18T00:25:29.432Z,90.52
2022-12-18T00:30:32.257Z,90.86
2022-12-18T00:35:35.033Z,90.98
2022-12-18T00:40:37.820Z,90.70
2022-12-18T00:45:40.689Z,90.84
2022-12-18T00:50:43.576Z,90.93
2022-12-18T00:55:47.027Z,90.73
2022-12-18T01:00:49.894Z,90.52
2022-12-18T01:05:52.827Z,90.79
2022-12-18T01:10:55.610Z,90.82
2022-12-18T01:15:58.457Z,90.35
2022-12-18T01:21:01.493Z,90.13
2022-12-18T01:26:15.554Z,89.95
2022-12-18T01:31:20.535Z,90.45
2022-12-18T01:36:25.222Z,89.78
2022-12-18T01:41:52.348Z,89.79
2022-12-18T01:46:55.147Z,90.06
2022-12-18T01:51:57.969Z,90.43
2022-12-18T01:57:02.096Z,90.54
2022-12-18T02:02:05.050Z,90.67
2022-12-18T02:07:19.970Z,90.82
2022-12-18T02:12:25.687Z,90.86
2022-12-18T02:17:36.407Z,90.38
2022-12-18T02:22:45.964Z,90.65
2022-12-18T02:27:51.986Z,90.81
2022-12-18T02:32:57.336Z,90.65
2022-12-18T02:38:01.336Z,91.15
2022-12-18T02:43:09.720Z,91.51
2022-12-18T02:48:12.569Z,91.55
2022-12-18T02:53:43.664Z,90.97
2022-12-18T02:59:31.717Z,90.51
2022-12-18T03:05:05.189Z,90.66
2022-12-18T03:10:12.798Z,91.13
2022-12-18T03:15:24.339Z,90.99
2022-12-18T03:20:30.346Z,90.80
2022-12-18T03:25:35.840Z,90.40
2022-12-18T03:30:42.042Z,90.52
2022-12-18T03:35:45.240Z,90.93
2022-12-18T03:40:51.133Z,91.08
2022-12-18T03:46:06.503Z,91.50
2022-12-18T03:51:22.924Z,91.35
2022-12-18T03:56:30.852Z,91.32
2022-12-18T04:01:38.719Z,91.59
2022-12-18T04:06:44.661Z,91.51
2022-12-18T04:11:48.699Z,91.55
2022-12-18T04:16:51.461Z,91.56
2022-12-18T04:21:54.322Z,91.93
2022-12-18T04:26:57.158Z,91.89
2022-12-18T04:32:00.025Z,91.74
2022-12-18T04:37:03.217Z,91.24
2022-12-18T04:42:06.160Z,91.82
2022-12-18T04:47:08.991Z,92.33
2022-12-18T04:52:11.776Z,92.44
2022-12-18T04:57:14.769Z,92.83
2022-12-18T05:02:17.731Z,93.17
2022-12-18T05:07:20.715Z,93.53
2022-12-18T05:12:24.738Z,93.52
2022-12-18T05:17:27.533Z,93.55
2022-12-18T05:22:30.306Z,94.03
2022-12-18T05:27:33.213Z,94.10
2022-12-18T05:32:35.985Z,94.37
2022-12-18T05:37:42.945Z,93.96
2022-12-18T05:42:48.288Z,93.53
2022-12-18T05:47:51.052Z,94.15
2022-12-18T05:52:53.817Z,94.11
2022-12-18T05:57:56.610Z,93.97
2022-12-18T06:03:00.438Z,94.10
2022-12-18T06:08:03.427Z,94.51
2022-12-18T06:13:07.154Z,94.56
2022-12-18T06:18:10.052Z,94.54
2022-12-18T06:23:12.908Z,94.63
2022-12-18T06:28:15.692Z,94.45
2022-12-18T06:33:18.565Z,94.85
2022-12-18T06:38:21.389Z,94.68
2022-12-18T06:43:24.165Z,94.79
2022-12-18T06:48:26.986Z,94.66
2022-12-18T06:53:30.568Z,94.40
2022-12-18T06:58:34.158Z,94.12
2022-12-18T07:03:38.431Z,94.06
2022-12-18T07:08:41.549Z,94.26
2022-12-18T07:13:44.930Z,94.38
2022-12-18T07:18:48.151Z,93.97
2022-12-18T07:23:53.696Z,93.61
2022-12-18T07:28:59.800Z,93.48
2022-12-18T07:34:02.675Z,93.62
2022-12-18T07:39:05.642Z,93.36
2022-12-18T07:44:11.772Z,92.95
2022-12-18T07:49:14.741Z,92.83
2022-12-18T07:54:18.270Z,92.73
2022-12-18T07:59:21.091Z,92.50
2022-12-18T08:04:23.952Z,92.66
2022-12-18T08:09:29.058Z,92.35
2022-12-18T08:14:34.392Z,92.26
2022-12-18T08:19:37.156Z,91.28
2022-12-18T08:24:39.967Z,90.96
2022-12-18T08:29:44.291Z,90.38
2022-12-18T08:34:47.079Z,90.28
2022-12-18T08:39:50.032Z,89.85
2022-12-18T08:44:52.939Z,89.81
2022-12-18T08:49:55.943Z,89.72
2022-12-18T08:54:58.772Z,89.68
2022-12-18T09:00:01.597Z,88.69
2022-12-18T09:05:05.247Z,88.27
2022-12-18T09:10:08.568Z,87.78
2022-12-18T09:15:11.477Z,87.52
2022-12-18T09:20:14.325Z,87.89
2022-12-18T09:25:18.044Z,87.41
2022-12-18T09:30:21.164Z,87.11
2022-12-18T09:35:26.163Z,86.54
2022-12-18T09:40:37.398Z,86.82
2022-12-18T09:45:47.293Z,87.10
2022-12-18T09:50:52.691Z,86.91
2022-12-18T09:55:57.527Z,86.98
2022-12-18T10:01:00.689Z,86.39
2022-12-18T10:06:14.838Z,86.37
2022-12-18T10:11:26.922Z,85.94
2022-12-18T10:16:44.688Z,85.71
2022-12-18T10:22:11.701Z,85.60
2022-12-18T10:27:22.685Z,85.94
2022-12-18T10:32:31.984Z,86.44
2022-12-18T10:37:34.856Z,86.68
2022-12-18T10:42:39.456Z,86.34
2022-12-18T10:47:49.426Z,86.03
2022-12-18T10:53:00.520Z,86.07
2022-12-18T10:58:30.129Z,86.15
2022-12-18T11:03:39.128Z,85.78
2022-12-18T11:08:44.670Z,86.23
2022-12-18T11:14:12.750Z,86.46
2022-12-18T11:19:45.761Z,86.01
2022-12-18T11:25:34.505Z,86.48
2022-12-18T11:30:39.079Z,85.91
2022-12-18T11:35:58.614Z,85.48
2022-12-18T11:41:05.312Z,86.26
2022-12-18T11:46:24.202Z,86.56
2022-12-18T11:51:33.574Z,86.16
2022-12-18T11:56:38.153Z,85.87
2022-12-18T12:01:56.559Z,86.26
2022-12-18T12:07:20.873Z,86.30
2022-12-18T12:12:57.520Z,86.39
2022-12-18T12:18:16.160Z,86.49
2022-12-18T12:23:21.544Z,86.71
2022-12-18T12:28:53.852Z,86.90
2022-12-18T12:34:18.656Z,86.76
2022-12-18T12:39:31.670Z,87.31
2022-12-18T12:44:52.772Z,87.15
2022-12-18T12:50:02.911Z,87.29
2022-12-18T12:55:17.673Z,87.14
2022-12-18T13:00:21.374Z,87.63
2022-12-18T13:05:46.543Z,87.89
2022-12-18T13:11:11.415Z,88.15
2022-12-18T13:16:21.118Z,88.12
2022-12-18T13:21:31.595Z,88.33
2022-12-18T13:26:35.589Z,88.24
2022-12-18T13:31:42.287Z,88.47
2022-12-18T13:36:46.884Z,88.51
2022-12-18T13:41:53.599Z,88.91
2022-12-18T13:46:57.055Z,88.91
2022-12-18T13:52:00.221Z,88.76
2022-12-18T13:57:07.359Z,88.76
2022-12-18T14:02:13.249Z,88.54
2022-12-18T14:07:19.291Z,88.38
2022-12-18T14:12:44.810Z,88.30
2022-12-18T14:18:16.403Z,88.63
2022-12-18T14:23:46.176Z,89.54
2022-12-18T14:28:49.163Z,89.98
2022-12-18T14:33:53.281Z,90.25
2022-12-18T14:39:00.230Z,90.61
2022-12-18T14:44:07.467Z,90.82
2022-12-18T14:49:33.876Z,90.83
2022-12-18T14:54:38.550Z,91.04
2022-12-18T14:59:41.384Z,91.45
2022-12-18T15:04:45.143Z,91.35
2022-12-18T15:10:09.879Z,91.64
2022-12-18T15:15:38.645Z,91.82
2022-12-18T15:21:00.291Z,91.86
2022-12-18T15:26:04.932Z,91.84
2022-12-18T15:31:17.805Z,91.75
2022-12-18T15:36:26.798Z,91.71
2022-12-18T15:41:35.787Z,91.09
2022-12-18T15:46:39.125Z,91.52
2022-12-18T15:51:43.390Z,91.64
2022-12-18T15:57:05.988Z,91.35
2022-12-18T16:02:17.526Z,91.50
2022-12-18T16:07:24.889Z,91.69
2022-12-18T16:12:29.104Z,91.59
2022-12-18T16:17:32.248Z,91.22
2022-12-18T16:22:35.069Z,91.39
2022-12-18T16:27:37.901Z,91.71
2022-12-18T16:32:41.088Z,91.55
2022-12-18T16:37:46.341Z,91.34
2022-12-18T16:42:49.542Z,91.43
2022-12-18T16:47:54.619Z,91.65
2022-12-18T16:52:57.454Z,91.82
2022-12-18T16:58:00.255Z,91.42
2022-12-18T17:03:03.333Z,91.19
2022-12-18T17:08:06.581Z,91.23
2022-12-18T17:13:10.381Z,91.39
2022-12-18T17:18:13.173Z,91.30
2022-12-18T17:23:15.980Z,91.36
2022-12-18T17:28:20.525Z,91.56
2022-12-18T17:33:25.122Z,91.17
2022-12-18T17:38:27.907Z,90.84
2022-12-18T17:43:31.206Z,90.77
2022-12-18T17:48:34.144Z,90.65
2022-12-18T17:53:41.819Z,90.35
2022-12-18T17:58:45.148Z,90.77
2022-12-18T18:03:50.361Z,91.15
2022-12-18T18:08:57.667Z,91.06
2022-12-18T18:14:01.007Z,90.87
2022-12-18T18:19:09.632Z,90.72
2022-12-18T18:24:14.736Z,90.64
2022-12-18T18:29:20.326Z,90.38
2022-12-18T18:34:26.483Z,89.70
2022-12-18T18:39:29.778Z,89.62
2022-12-18T18:44:32.865Z,89.09
2022-12-18T18:49:35.698Z,89.05
2022-12-18T18:54:44.322Z,89.23
2022-12-18T18:59:55.031Z,89.32
2022-12-18T19:04:57.924Z,89.28
2022-12-18T19:10:04.189Z,89.40
2022-12-18T19:15:08.163Z,89.22
2022-12-18T19:20:12.398Z,89.36
2022-12-18T19:25:15.339Z,89.36
2022-12-18T19:30:18.505Z,89.21
2022-12-18T19:35:21.319Z,89.30
2022-12-18T19:40:25.186Z,89.32
2022-12-18T19:45:29.093Z,89.29
2022-12-18T19:50:32.169Z,89.36
2022-12-18T19:55:42.019Z,89.74
2022-12-18T20:00:48.095Z,89.54
2022-12-18T20:05:50.934Z,89.43
2022-12-18T20:10:54.149Z,89.19
2022-12-18T20:15:57.565Z,88.79
2022-12-18T20:21:05.504Z,88.18
2022-12-18T20:26:10.139Z,88.08
2022-12-18T20:31:14.158Z,87.63
2022-12-18T20:42:12.946Z,88.02
2022-12-18T20:47:16.212Z,87.75
2022-12-18T20:52:19.147Z,87.12
2022-12-18T20:57:23.206Z,87.15
2022-12-18T21:02:26.089Z,86.75
2022-12-18T21:07:29.189Z,86.75
2022-12-18T21:12:40.223Z,87.09
2022-12-18T21:17:51.110Z,87.18
2022-12-18T21:22:54.071Z,86.86
2022-12-18T21:28:00.287Z,86.51
2022-12-18T21:33:03.538Z,86.83
2022-12-18T21:38:06.385Z,86.87
2022-12-18T21:43:29.209Z,86.62
2022-12-18T21:48:32.142Z,86.26
2022-12-18T21:53:34.923Z,86.42
2022-12-18T21:58:37.671Z,86.25
2022-12-18T22:03:40.636Z,86.23
2022-12-18T22:08:44.111Z,86.13
2022-12-18T22:13:50.289Z,85.90
2022-12-18T22:18:53.769Z,86.24
2022-12-18T22:24:01.852Z,86.31
2022-12-18T22:29:24.557Z,86.16
2022-12-18T22:34:28.836Z,86.35
2022-12-18T22:39:33.147Z,86.60
2022-12-18T22:44:36.514Z,86.07
2022-12-18T22:49:39.679Z,85.96
2022-12-18T22:54:42.487Z,86.04
2022-12-18T22:59:45.365Z,86.18
2022-12-18T23:04:48.200Z,85.82
2022-12-18T23:09:51.377Z,85.43
2022-12-18T23:15:02.353Z,85.09
2022-12-18T23:20:07.249Z,85.13
2022-12-18T23:25:10.103Z,85.48
2022-12-18T23:30:13.454Z,85.34
2022-12-18T23:35:17.898Z,85.86
2022-12-18T23:40:20.700Z,85.79
2022-12-18T23:45:23.907Z,85.66
2022-12-18T23:50:29.457Z,86.23
2022-12-18T23:55:38.740Z,86.36
